sensor_id;sensor_type;location;lat;lon;timestamp;P1;durP1;ratioP1;P2;durP2;ratioP2
56511;SDS011;42408;53.238;5.686;2022-12-20T00:01:15;10.40;;;6.15;;
56511;SDS011;42408;53.238;5.686;2022-12-20T00:03:51;10.98;;;6.88;;
56511;SDS011;42408;53.238;5.686;2022-12-20T00:06:19;10.25;;;6.57;;
56511;SDS011;42408;53.238;5.686;2022-12-20T00:08:46;10.23;;;6.53;;
56511;SDS011;42408;53.238;5.686;2022-12-20T00:11:16;9.75;;;7.45;;
56511;SDS011;42408;53.238;5.686;2022-12-20T00:13:42;8.87;;;6.60;;
56511;SDS011;42408;53.238;5.686;2022-12-20T00:16:11;10.57;;;6.13;;
56511;SDS011;42408;53.238;5.686;2022-12-20T00:18:39;12.10;;;6.47;;
56511;SDS011;42408;53.238;5.686;2022-12-20T00:21:06;11.73;;;6.32;;
56511;SDS011;42408;53.238;5.686;2022-12-20T00:23:33;9.98;;;6.18;;
56511;SDS011;42408;53.238;5.686;2022-12-20T00:26:07;9.98;;;6.20;;
56511;SDS011;42408;53.238;5.686;2022-12-20T00:28:35;9.48;;;6.95;;
56511;SDS011;42408;53.238;5.686;2022-12-20T00:33:28;8.77;;;6.10;;
56511;SDS011;42408;53.238;5.686;2022-12-20T00:35:54;9.97;;;6.93;;
56511;SDS011;42408;53.238;5.686;2022-12-20T00:38:20;9.75;;;5.65;;
56511;SDS011;42408;53.238;5.686;2022-12-20T00:40:47;10.68;;;7.38;;
56511;SDS011;42408;53.238;5.686;2022-12-20T00:43:22;13.48;;;6.47;;
56511;SDS011;42408;53.238;5.686;2022-12-20T00:45:48;9.53;;;5.97;;
56511;SDS011;42408;53.238;5.686;2022-12-20T00:48:13;12.33;;;6.37;;
56511;SDS011;42408;53.238;5.686;2022-12-20T00:50:39;10.47;;;6.27;;
56511;SDS011;42408;53.238;5.686;2022-12-20T00:53:04;9.27;;;5.60;;
56511;SDS011;42408;53.238;5.686;2022-12-20T00:55:33;9.93;;;6.13;;
56511;SDS011;42408;53.238;5.686;2022-12-20T00:57:59;9.97;;;5.83;;
56511;SDS011;42408;53.238;5.686;2022-12-20T01:00:25;8.03;;;5.40;;
56511;SDS011;42408;53.238;5.686;2022-12-20T01:02:50;9.23;;;5.23;;
56511;SDS011;42408;53.238;5.686;2022-12-20T01:05:16;7.87;;;5.50;;
56511;SDS011;42408;53.238;5.686;2022-12-20T01:07:41;12.00;;;6.57;;
56511;SDS011;42408;53.238;5.686;2022-12-20T01:10:07;9.53;;;6.33;;
56511;SDS011;42408;53.238;5.686;2022-12-20T01:12:33;10.77;;;5.78;;
56511;SDS011;42408;53.238;5.686;2022-12-20T01:14:59;8.83;;;6.40;;
56511;SDS011;42408;53.238;5.686;2022-12-20T01:17:24;9.27;;;5.97;;
56511;SDS011;42408;53.238;5.686;2022-12-20T01:19:50;11.13;;;5.80;;
56511;SDS011;42408;53.238;5.686;2022-12-20T01:22:16;9.20;;;5.70;;
56511;SDS011;42408;53.238;5.686;2022-12-20T01:24:41;8.80;;;5.27;;
56511;SDS011;42408;53.238;5.686;2022-12-20T01:27:07;10.47;;;5.90;;
56511;SDS011;42408;53.238;5.686;2022-12-20T01:29:32;8.57;;;5.53;;
56511;SDS011;42408;53.238;5.686;2022-12-20T01:31:58;8.50;;;5.97;;
56511;SDS011;42408;53.238;5.686;2022-12-20T01:34:24;9.77;;;5.60;;
56511;SDS011;42408;53.238;5.686;2022-12-20T01:36:49;9.60;;;5.70;;
56511;SDS011;42408;53.238;5.686;2022-12-20T01:39:15;8.60;;;5.63;;
56511;SDS011;42408;53.238;5.686;2022-12-20T01:41:42;8.97;;;5.53;;
56511;SDS011;42408;53.238;5.686;2022-12-20T01:46:41;9.93;;;5.85;;
56511;SDS011;42408;53.238;5.686;2022-12-20T01:51:45;8.77;;;5.65;;
56511;SDS011;42408;53.238;5.686;2022-12-20T01:54:30;11.85;;;6.10;;
56511;SDS011;42408;53.238;5.686;2022-12-20T01:57:01;11.80;;;6.15;;
56511;SDS011;42408;53.238;5.686;2022-12-20T01:59:30;8.30;;;5.85;;
56511;SDS011;42408;53.238;5.686;2022-12-20T02:01:57;9.32;;;6.07;;
56511;SDS011;42408;53.238;5.686;2022-12-20T02:04:26;8.95;;;5.80;;
56511;SDS011;42408;53.238;5.686;2022-12-20T02:06:52;10.17;;;6.60;;
56511;SDS011;42408;53.238;5.686;2022-12-20T02:09:17;9.13;;;5.30;;
56511;SDS011;42408;53.238;5.686;2022-12-20T02:14:37;8.80;;;5.70;;
56511;SDS011;42408;53.238;5.686;2022-12-20T02:30:50;9.93;;;5.63;;
56511;SDS011;42408;53.238;5.686;2022-12-20T02:33:18;11.32;;;6.53;;
56511;SDS011;42408;53.238;5.686;2022-12-20T02:35:48;9.85;;;5.90;;
56511;SDS011;42408;53.238;5.686;2022-12-20T02:41:25;10.48;;;6.63;;
56511;SDS011;42408;53.238;5.686;2022-12-20T02:44:15;8.93;;;6.40;;
56511;SDS011;42408;53.238;5.686;2022-12-20T02:47:04;9.65;;;6.38;;
56511;SDS011;42408;53.238;5.686;2022-12-20T02:49:36;10.90;;;6.18;;
56511;SDS011;42408;53.238;5.686;2022-12-20T02:52:05;10.63;;;6.82;;
56511;SDS011;42408;53.238;5.686;2022-12-20T02:54:33;11.18;;;6.43;;
56511;SDS011;42408;53.238;5.686;2022-12-20T02:57:00;9.65;;;6.93;;
56511;SDS011;42408;53.238;5.686;2022-12-20T02:59:48;10.18;;;6.95;;
56511;SDS011;42408;53.238;5.686;2022-12-20T03:02:32;9.80;;;6.25;;
56511;SDS011;42408;53.238;5.686;2022-12-20T03:05:18;8.93;;;5.97;;
56511;SDS011;42408;53.238;5.686;2022-12-20T03:07:47;8.23;;;5.70;;
56511;SDS011;42408;53.238;5.686;2022-12-20T03:10:12;8.77;;;6.13;;
56511;SDS011;42408;53.238;5.686;2022-12-20T03:12:38;7.87;;;5.60;;
56511;SDS011;42408;53.238;5.686;2022-12-20T03:15:04;9.70;;;6.67;;
56511;SDS011;42408;53.238;5.686;2022-12-20T03:17:30;9.52;;;6.10;;
56511;SDS011;42408;53.238;5.686;2022-12-20T03:19:55;9.50;;;6.53;;
56511;SDS011;42408;53.238;5.686;2022-12-20T03:22:21;9.77;;;6.33;;
56511;SDS011;42408;53.238;5.686;2022-12-20T03:24:47;9.88;;;5.78;;
56511;SDS011;42408;53.238;5.686;2022-12-20T03:27:13;10.07;;;6.10;;
56511;SDS011;42408;53.238;5.686;2022-12-20T03:29:39;11.97;;;5.73;;
56511;SDS011;42408;53.238;5.686;2022-12-20T03:32:04;10.90;;;6.30;;
56511;SDS011;42408;53.238;5.686;2022-12-20T03:34:30;8.93;;;5.65;;
56511;SDS011;42408;53.238;5.686;2022-12-20T03:36:56;10.17;;;7.10;;
56511;SDS011;42408;53.238;5.686;2022-12-20T03:39:22;10.03;;;5.73;;
56511;SDS011;42408;53.238;5.686;2022-12-20T03:41:47;9.87;;;6.13;;
56511;SDS011;42408;53.238;5.686;2022-12-20T03:44:13;11.20;;;6.07;;
56511;SDS011;42408;53.238;5.686;2022-12-20T03:46:39;10.13;;;5.77;;
56511;SDS011;42408;53.238;5.686;2022-12-20T03:49:04;9.23;;;5.97;;
56511;SDS011;42408;53.238;5.686;2022-12-20T03:51:30;10.97;;;5.73;;
56511;SDS011;42408;53.238;5.686;2022-12-20T03:53:56;7.53;;;5.20;;
56511;SDS011;42408;53.238;5.686;2022-12-20T03:56:21;9.60;;;5.60;;
56511;SDS011;42408;53.238;5.686;2022-12-20T03:58:47;8.33;;;5.53;;
56511;SDS011;42408;53.238;5.686;2022-12-20T04:01:20;10.70;;;6.38;;
56511;SDS011;42408;53.238;5.686;2022-12-20T04:06:17;7.85;;;5.13;;
56511;SDS011;42408;53.238;5.686;2022-12-20T04:08:43;8.85;;;5.22;;
56511;SDS011;42408;53.238;5.686;2022-12-20T04:11:09;8.80;;;5.97;;
56511;SDS011;42408;53.238;5.686;2022-12-20T04:13:48;8.30;;;5.35;;
56511;SDS011;42408;53.238;5.686;2022-12-20T04:16:15;9.05;;;5.43;;
56511;SDS011;42408;53.238;5.686;2022-12-20T04:18:45;8.15;;;5.55;;
56511;SDS011;42408;53.238;5.686;2022-12-20T04:21:11;11.17;;;5.67;;
56511;SDS011;42408;53.238;5.686;2022-12-20T04:23:38;9.73;;;5.50;;
56511;SDS011;42408;53.238;5.686;2022-12-20T04:26:05;7.88;;;5.28;;
56511;SDS011;42408;53.238;5.686;2022-12-20T04:28:32;8.55;;;6.05;;
56511;SDS011;42408;53.238;5.686;2022-12-20T04:33:24;8.20;;;5.47;;
56511;SDS011;42408;53.238;5.686;2022-12-20T04:35:51;9.00;;;5.22;;
56511;SDS011;42408;53.238;5.686;2022-12-20T04:38:17;9.63;;;5.28;;
56511;SDS011;42408;53.238;5.686;2022-12-20T04:43:12;7.85;;;5.60;;
56511;SDS011;42408;53.238;5.686;2022-12-20T04:45:37;7.33;;;5.07;;
56511;SDS011;42408;53.238;5.686;2022-12-20T04:48:03;10.03;;;5.53;;
56511;SDS011;42408;53.238;5.686;2022-12-20T04:50:29;9.13;;;5.80;;
56511;SDS011;42408;53.238;5.686;2022-12-20T04:52:54;10.37;;;6.07;;
56511;SDS011;42408;53.238;5.686;2022-12-20T04:55:39;10.93;;;5.95;;
56511;SDS011;42408;53.238;5.686;2022-12-20T04:58:06;8.73;;;5.47;;
56511;SDS011;42408;53.238;5.686;2022-12-20T05:00:32;9.15;;;5.10;;
56511;SDS011;42408;53.238;5.686;2022-12-20T05:02:58;9.52;;;5.10;;
56511;SDS011;42408;53.238;5.686;2022-12-20T05:05:25;10.10;;;5.65;;
56511;SDS011;42408;53.238;5.686;2022-12-20T05:07:51;6.88;;;4.57;;
56511;SDS011;42408;53.238;5.686;2022-12-20T05:10:16;8.77;;;4.90;;
56511;SDS011;42408;53.238;5.686;2022-12-20T05:12:42;7.80;;;5.07;;
56511;SDS011;42408;53.238;5.686;2022-12-20T05:15:08;9.07;;;5.30;;
56511;SDS011;42408;53.238;5.686;2022-12-20T05:17:35;9.25;;;5.20;;
56511;SDS011;42408;53.238;5.686;2022-12-20T05:20:00;9.10;;;5.20;;
56511;SDS011;42408;53.238;5.686;2022-12-20T05:22:26;8.13;;;5.30;;
56511;SDS011;42408;53.238;5.686;2022-12-20T05:25:11;8.05;;;4.93;;
56511;SDS011;42408;53.238;5.686;2022-12-20T05:27:55;7.97;;;5.05;;
56511;SDS011;42408;53.238;5.686;2022-12-20T05:30:21;7.70;;;5.30;;
56511;SDS011;42408;53.238;5.686;2022-12-20T05:32:47;8.50;;;5.50;;
56511;SDS011;42408;53.238;5.686;2022-12-20T05:35:12;7.00;;;5.10;;
56511;SDS011;42408;53.238;5.686;2022-12-20T05:37:38;8.10;;;5.07;;
56511;SDS011;42408;53.238;5.686;2022-12-20T05:40:04;12.93;;;5.23;;
56511;SDS011;42408;53.238;5.686;2022-12-20T05:42:30;7.45;;;4.88;;
56511;SDS011;42408;53.238;5.686;2022-12-20T05:44:56;7.63;;;4.63;;
56511;SDS011;42408;53.238;5.686;2022-12-20T05:47:22;9.93;;;5.27;;
56511;SDS011;42408;53.238;5.686;2022-12-20T05:49:47;10.27;;;5.00;;
56511;SDS011;42408;53.238;5.686;2022-12-20T05:52:13;8.07;;;4.90;;
56511;SDS011;42408;53.238;5.686;2022-12-20T05:54:38;8.53;;;5.63;;
56511;SDS011;42408;53.238;5.686;2022-12-20T05:57:04;8.37;;;4.90;;
56511;SDS011;42408;53.238;5.686;2022-12-20T05:59:29;7.83;;;5.07;;
56511;SDS011;42408;53.238;5.686;2022-12-20T06:01:55;6.93;;;5.33;;
56511;SDS011;42408;53.238;5.686;2022-12-20T06:04:21;7.87;;;4.87;;
56511;SDS011;42408;53.238;5.686;2022-12-20T06:06:46;9.93;;;5.47;;
56511;SDS011;42408;53.238;5.686;2022-12-20T06:09:12;8.87;;;5.07;;
56511;SDS011;42408;53.238;5.686;2022-12-20T06:11:38;7.33;;;5.43;;
56511;SDS011;42408;53.238;5.686;2022-12-20T06:14:03;8.83;;;5.57;;
56511;SDS011;42408;53.238;5.686;2022-12-20T06:16:29;9.30;;;5.07;;
56511;SDS011;42408;53.238;5.686;2022-12-20T06:18:55;6.57;;;4.77;;
56511;SDS011;42408;53.238;5.686;2022-12-20T06:21:21;8.55;;;5.25;;
56511;SDS011;42408;53.238;5.686;2022-12-20T06:23:47;8.27;;;5.20;;
56511;SDS011;42408;53.238;5.686;2022-12-20T06:26:13;9.70;;;6.47;;
56511;SDS011;42408;53.238;5.686;2022-12-20T06:28:39;11.23;;;5.50;;
56511;SDS011;42408;53.238;5.686;2022-12-20T06:31:07;9.25;;;6.68;;
56511;SDS011;42408;53.238;5.686;2022-12-20T06:33:34;8.95;;;6.55;;
56511;SDS011;42408;53.238;5.686;2022-12-20T06:36:00;9.35;;;5.97;;
56511;SDS011;42408;53.238;5.686;2022-12-20T06:38:26;8.63;;;5.37;;
56511;SDS011;42408;53.238;5.686;2022-12-20T06:40:52;10.70;;;7.47;;
56511;SDS011;42408;53.238;5.686;2022-12-20T06:43:17;10.80;;;7.40;;
56511;SDS011;42408;53.238;5.686;2022-12-20T06:45:43;10.23;;;7.30;;
56511;SDS011;42408;53.238;5.686;2022-12-20T06:48:09;13.33;;;7.87;;
56511;SDS011;42408;53.238;5.686;2022-12-20T06:50:36;12.20;;;8.90;;
56511;SDS011;42408;53.238;5.686;2022-12-20T06:53:02;12.45;;;8.85;;
56511;SDS011;42408;53.238;5.686;2022-12-20T06:55:28;11.47;;;7.17;;
56511;SDS011;42408;53.238;5.686;2022-12-20T06:57:53;12.07;;;8.90;;
56511;SDS011;42408;53.238;5.686;2022-12-20T07:00:20;12.13;;;8.40;;
56511;SDS011;42408;53.238;5.686;2022-12-20T07:02:46;12.13;;;8.50;;
56511;SDS011;42408;53.238;5.686;2022-12-20T07:05:12;10.50;;;8.40;;
56511;SDS011;42408;53.238;5.686;2022-12-20T07:07:38;14.17;;;8.23;;
56511;SDS011;42408;53.238;5.686;2022-12-20T07:10:04;12.40;;;8.10;;
56511;SDS011;42408;53.238;5.686;2022-12-20T07:12:30;11.77;;;8.65;;
56511;SDS011;42408;53.238;5.686;2022-12-20T07:17:23;10.65;;;7.95;;
56511;SDS011;42408;53.238;5.686;2022-12-20T07:19:49;11.40;;;8.40;;
56511;SDS011;42408;53.238;5.686;2022-12-20T07:22:15;9.43;;;6.70;;
56511;SDS011;42408;53.238;5.686;2022-12-20T07:24:40;13.20;;;7.83;;
56511;SDS011;42408;53.238;5.686;2022-12-20T07:27:06;10.20;;;7.33;;
56511;SDS011;42408;53.238;5.686;2022-12-20T07:29:32;9.47;;;6.90;;
56511;SDS011;42408;53.238;5.686;2022-12-20T07:31:58;9.53;;;7.40;;
56511;SDS011;42408;53.238;5.686;2022-12-20T07:34:24;9.07;;;7.13;;
56511;SDS011;42408;53.238;5.686;2022-12-20T07:36:49;8.73;;;6.83;;
56511;SDS011;42408;53.238;5.686;2022-12-20T07:39:15;10.10;;;7.90;;
56511;SDS011;42408;53.238;5.686;2022-12-20T07:41:41;12.87;;;7.03;;
56511;SDS011;42408;53.238;5.686;2022-12-20T07:44:06;12.60;;;7.40;;
56511;SDS011;42408;53.238;5.686;2022-12-20T07:46:32;10.00;;;6.13;;
56511;SDS011;42408;53.238;5.686;2022-12-20T07:48:58;9.20;;;6.20;;
56511;SDS011;42408;53.238;5.686;2022-12-20T07:51:28;9.37;;;6.30;;
56511;SDS011;42408;53.238;5.686;2022-12-20T07:54:17;11.77;;;6.78;;
56511;SDS011;42408;53.238;5.686;2022-12-20T07:56:47;9.93;;;6.40;;
56511;SDS011;42408;53.238;5.686;2022-12-20T07:59:26;10.07;;;6.10;;
56511;SDS011;42408;53.238;5.686;2022-12-20T08:01:54;9.75;;;6.18;;
56511;SDS011;42408;53.238;5.686;2022-12-20T08:04:23;9.00;;;5.43;;
56511;SDS011;42408;53.238;5.686;2022-12-20T08:06:51;10.23;;;6.10;;
56511;SDS011;42408;53.238;5.686;2022-12-20T08:09:19;8.30;;;6.15;;
56511;SDS011;42408;53.238;5.686;2022-12-20T08:11:47;8.52;;;5.22;;
56511;SDS011;42408;53.238;5.686;2022-12-20T08:14:14;9.90;;;5.95;;
56511;SDS011;42408;53.238;5.686;2022-12-20T08:16:42;8.38;;;5.68;;
56511;SDS011;42408;53.238;5.686;2022-12-20T08:19:08;7.93;;;5.40;;
56511;SDS011;42408;53.238;5.686;2022-12-20T08:21:34;7.93;;;5.40;;
56511;SDS011;42408;53.238;5.686;2022-12-20T08:24:00;7.33;;;5.43;;
56511;SDS011;42408;53.238;5.686;2022-12-20T08:28:53;11.07;;;5.43;;
56511;SDS011;42408;53.238;5.686;2022-12-20T08:31:19;8.63;;;5.28;;
56511;SDS011;42408;53.238;5.686;2022-12-20T08:33:45;9.40;;;4.90;;
56511;SDS011;42408;53.238;5.686;2022-12-20T08:36:11;10.77;;;5.07;;
56511;SDS011;42408;53.238;5.686;2022-12-20T08:41:07;10.60;;;5.10;;
56511;SDS011;42408;53.238;5.686;2022-12-20T08:43:35;7.47;;;4.75;;
56511;SDS011;42408;53.238;5.686;2022-12-20T08:46:02;7.65;;;5.15;;
56511;SDS011;42408;53.238;5.686;2022-12-20T08:48:27;8.93;;;4.90;;
56511;SDS011;42408;53.238;5.686;2022-12-20T08:51:00;8.05;;;4.60;;
56511;SDS011;42408;53.238;5.686;2022-12-20T08:53:28;10.57;;;4.43;;
56511;SDS011;42408;53.238;5.686;2022-12-20T08:56:01;9.40;;;5.07;;
56511;SDS011;42408;53.238;5.686;2022-12-20T08:58:31;7.45;;;4.47;;
56511;SDS011;42408;53.238;5.686;2022-12-20T09:00:58;6.75;;;4.05;;
56511;SDS011;42408;53.238;5.686;2022-12-20T09:05:50;7.38;;;4.15;;
56511;SDS011;42408;53.238;5.686;2022-12-20T09:08:16;7.77;;;4.83;;
56511;SDS011;42408;53.238;5.686;2022-12-20T09:10:42;7.33;;;4.47;;
56511;SDS011;42408;53.238;5.686;2022-12-20T09:13:08;6.57;;;4.40;;
56511;SDS011;42408;53.238;5.686;2022-12-20T09:18:00;8.50;;;4.50;;
56511;SDS011;42408;53.238;5.686;2022-12-20T09:20:27;6.43;;;3.90;;
56511;SDS011;42408;53.238;5.686;2022-12-20T09:22:53;8.75;;;4.50;;
56511;SDS011;42408;53.238;5.686;2022-12-20T09:25:19;8.83;;;4.27;;
56511;SDS011;42408;53.238;5.686;2022-12-20T09:27:45;7.50;;;3.70;;
56511;SDS011;42408;53.238;5.686;2022-12-20T09:30:10;8.40;;;4.57;;
56511;SDS011;42408;53.238;5.686;2022-12-20T09:32:36;6.43;;;3.73;;
56511;SDS011;42408;53.238;5.686;2022-12-20T09:35:03;7.87;;;3.83;;
56511;SDS011;42408;53.238;5.686;2022-12-20T09:37:29;6.88;;;4.07;;
56511;SDS011;42408;53.238;5.686;2022-12-20T09:42:23;6.15;;;3.45;;
56511;SDS011;42408;53.238;5.686;2022-12-20T09:44:54;7.65;;;4.15;;
56511;SDS011;42408;53.238;5.686;2022-12-20T09:47:26;6.22;;;4.18;;
56511;SDS011;42408;53.238;5.686;2022-12-20T09:49:53;6.80;;;3.50;;
56511;SDS011;42408;53.238;5.686;2022-12-20T10:00:40;7.38;;;3.95;;
56511;SDS011;42408;53.238;5.686;2022-12-20T10:03:12;8.55;;;4.13;;
56511;SDS011;42408;53.238;5.686;2022-12-20T10:05:48;6.45;;;4.00;;
56511;SDS011;42408;53.238;5.686;2022-12-20T10:22:49;7.43;;;4.35;;
56511;SDS011;42408;53.238;5.686;2022-12-20T10:25:22;7.88;;;4.35;;
56511;SDS011;42408;53.238;5.686;2022-12-20T10:27:49;7.38;;;4.03;;
56511;SDS011;42408;53.238;5.686;2022-12-20T10:30:20;7.57;;;4.00;;
56511;SDS011;42408;53.238;5.686;2022-12-20T10:32:49;9.80;;;4.07;;
56511;SDS011;42408;53.238;5.686;2022-12-20T10:35:23;7.95;;;4.35;;
56511;SDS011;42408;53.238;5.686;2022-12-20T10:40:34;8.02;;;4.55;;
56511;SDS011;42408;53.238;5.686;2022-12-20T10:43:22;7.88;;;4.10;;
56511;SDS011;42408;53.238;5.686;2022-12-20T10:46:05;7.15;;;4.25;;
56511;SDS011;42408;53.238;5.686;2022-12-20T10:48:37;8.38;;;4.40;;
56511;SDS011;42408;53.238;5.686;2022-12-20T10:53:50;6.85;;;3.97;;
56511;SDS011;42408;53.238;5.686;2022-12-20T10:56:17;5.97;;;3.60;;
56511;SDS011;42408;53.238;5.686;2022-12-20T10:58:55;7.25;;;4.03;;
56511;SDS011;42408;53.238;5.686;2022-12-20T11:01:26;8.07;;;4.25;;
56511;SDS011;42408;53.238;5.686;2022-12-20T11:04:04;9.32;;;4.60;;
56511;SDS011;42408;53.238;5.686;2022-12-20T11:12:08;9.07;;;4.68;;
56511;SDS011;42408;53.238;5.686;2022-12-20T11:14:36;11.82;;;5.28;;
56511;SDS011;42408;53.238;5.686;2022-12-20T11:17:29;7.88;;;4.32;;
56511;SDS011;42408;53.238;5.686;2022-12-20T11:23:24;7.93;;;5.05;;
56511;SDS011;42408;53.238;5.686;2022-12-20T11:28:23;7.50;;;5.07;;
56511;SDS011;42408;53.238;5.686;2022-12-20T11:33:51;8.68;;;5.90;;
56511;SDS011;42408;53.238;5.686;2022-12-20T11:36:47;8.27;;;5.57;;
56511;SDS011;42408;53.238;5.686;2022-12-20T11:39:10;11.00;;;5.63;;
56511;SDS011;42408;53.238;5.686;2022-12-20T11:53:04;10.00;;;6.47;;
56511;SDS011;42408;53.238;5.686;2022-12-20T11:55:36;9.82;;;6.05;;
56511;SDS011;42408;53.238;5.686;2022-12-20T11:58:19;10.65;;;6.93;;
56511;SDS011;42408;53.238;5.686;2022-12-20T12:01:21;11.07;;;6.70;;
56511;SDS011;42408;53.238;5.686;2022-12-20T12:03:54;8.77;;;6.82;;
56511;SDS011;42408;53.238;5.686;2022-12-20T12:06:30;11.57;;;6.78;;
56511;SDS011;42408;53.238;5.686;2022-12-20T12:11:29;12.20;;;7.75;;
56511;SDS011;42408;53.238;5.686;2022-12-20T12:13:56;11.30;;;7.80;;
56511;SDS011;42408;53.238;5.686;2022-12-20T12:16:44;11.68;;;7.82;;
56511;SDS011;42408;53.238;5.686;2022-12-20T12:19:15;11.90;;;8.35;;
56511;SDS011;42408;53.238;5.686;2022-12-20T12:21:56;13.43;;;8.23;;
56511;SDS011;42408;53.238;5.686;2022-12-20T12:24:27;10.07;;;8.13;;
56511;SDS011;42408;53.238;5.686;2022-12-20T12:27:20;10.40;;;7.88;;
56511;SDS011;42408;53.238;5.686;2022-12-20T12:29:47;10.23;;;7.68;;
56511;SDS011;42408;53.238;5.686;2022-12-20T12:37:44;12.40;;;9.02;;
56511;SDS011;42408;53.238;5.686;2022-12-20T12:45:57;12.57;;;9.32;;
56511;SDS011;42408;53.238;5.686;2022-12-20T12:51:03;12.98;;;9.80;;
56511;SDS011;42408;53.238;5.686;2022-12-20T12:53:40;11.57;;;9.43;;
56511;SDS011;42408;53.238;5.686;2022-12-20T13:04:58;13.45;;;9.15;;
56511;SDS011;42408;53.238;5.686;2022-12-20T13:09:56;13.77;;;10.27;;
56511;SDS011;42408;53.238;5.686;2022-12-20T13:15:01;13.73;;;10.70;;
56511;SDS011;42408;53.238;5.686;2022-12-20T13:20:15;16.15;;;11.43;;
56511;SDS011;42408;53.238;5.686;2022-12-20T13:25:33;14.48;;;12.10;;
56511;SDS011;42408;53.238;5.686;2022-12-20T13:30:41;16.08;;;11.65;;
56511;SDS011;42408;53.238;5.686;2022-12-20T13:33:18;16.00;;;12.35;;
56511;SDS011;42408;53.238;5.686;2022-12-20T13:41:31;14.73;;;12.70;;
56511;SDS011;42408;53.238;5.686;2022-12-20T13:49:11;20.02;;;16.00;;
56511;SDS011;42408;53.238;5.686;2022-12-20T13:51:44;22.55;;;18.75;;
56511;SDS011;42408;53.238;5.686;2022-12-20T13:54:19;14.63;;;12.43;;
56511;SDS011;42408;53.238;5.686;2022-12-20T13:56:46;15.77;;;11.90;;
56511;SDS011;42408;53.238;5.686;2022-12-20T13:59:19;17.55;;;13.93;;
56511;SDS011;42408;53.238;5.686;2022-12-20T14:01:52;17.88;;;14.43;;
56511;SDS011;42408;53.238;5.686;2022-12-20T14:04:20;19.25;;;13.85;;
56511;SDS011;42408;53.238;5.686;2022-12-20T14:06:53;16.23;;;13.70;;
56511;SDS011;42408;53.238;5.686;2022-12-20T14:09:30;18.65;;;15.27;;
56511;SDS011;42408;53.238;5.686;2022-12-20T14:12:08;22.42;;;14.40;;
56511;SDS011;42408;53.238;5.686;2022-12-20T14:14:38;20.60;;;14.85;;
56511;SDS011;42408;53.238;5.686;2022-12-20T14:17:19;17.92;;;14.38;;
56511;SDS011;42408;53.238;5.686;2022-12-20T14:22:36;18.50;;;14.10;;
56511;SDS011;42408;53.238;5.686;2022-12-20T14:25:06;18.55;;;14.35;;
56511;SDS011;42408;53.238;5.686;2022-12-20T14:27:33;22.50;;;14.80;;
56511;SDS011;42408;53.238;5.686;2022-12-20T14:30:02;21.13;;;14.18;;
56511;SDS011;42408;53.238;5.686;2022-12-20T14:32:30;20.10;;;14.77;;
56511;SDS011;42408;53.238;5.686;2022-12-20T14:34:56;24.52;;;14.65;;
56511;SDS011;42408;53.238;5.686;2022-12-20T14:37:32;18.27;;;14.17;;
56511;SDS011;42408;53.238;5.686;2022-12-20T14:40:22;21.13;;;13.23;;
56511;SDS011;42408;53.238;5.686;2022-12-20T14:42:47;21.38;;;14.75;;
56511;SDS011;42408;53.238;5.686;2022-12-20T14:47:49;35.65;;;21.15;;
56511;SDS011;42408;53.238;5.686;2022-12-20T14:50:49;23.55;;;16.35;;
56511;SDS011;42408;53.238;5.686;2022-12-20T14:53:16;32.63;;;17.38;;
56511;SDS011;42408;53.238;5.686;2022-12-20T14:55:54;25.65;;;14.77;;
56511;SDS011;42408;53.238;5.686;2022-12-20T14:58:27;18.20;;;13.60;;
56511;SDS011;42408;53.238;5.686;2022-12-20T15:00:58;18.02;;;13.05;;
56511;SDS011;42408;53.238;5.686;2022-12-20T15:03:24;21.50;;;13.38;;
56511;SDS011;42408;53.238;5.686;2022-12-20T15:05:51;20.05;;;12.30;;
56511;SDS011;42408;53.238;5.686;2022-12-20T15:08:22;17.10;;;12.52;;
56511;SDS011;42408;53.238;5.686;2022-12-20T15:13:33;17.88;;;12.43;;
56511;SDS011;42408;53.238;5.686;2022-12-20T15:16:16;19.17;;;12.38;;
56511;SDS011;42408;53.238;5.686;2022-12-20T15:18:50;20.23;;;12.55;;
56511;SDS011;42408;53.238;5.686;2022-12-20T15:21:28;20.35;;;12.70;;
56511;SDS011;42408;53.238;5.686;2022-12-20T15:24:01;22.20;;;12.20;;
56511;SDS011;42408;53.238;5.686;2022-12-20T15:26:31;17.83;;;12.60;;
56511;SDS011;42408;53.238;5.686;2022-12-20T15:28:58;19.07;;;12.53;;
56511;SDS011;42408;53.238;5.686;2022-12-20T15:31:24;19.30;;;12.73;;
56511;SDS011;42408;53.238;5.686;2022-12-20T15:33:51;23.80;;;13.50;;
56511;SDS011;42408;53.238;5.686;2022-12-20T15:36:26;18.50;;;13.32;;
56511;SDS011;42408;53.238;5.686;2022-12-20T15:38:53;21.98;;;13.25;;
56511;SDS011;42408;53.238;5.686;2022-12-20T15:56:08;22.67;;;14.30;;
56511;SDS011;42408;53.238;5.686;2022-12-20T15:58:42;23.20;;;13.80;;
56511;SDS011;42408;53.238;5.686;2022-12-20T16:01:09;22.17;;;14.43;;
56511;SDS011;42408;53.238;5.686;2022-12-20T16:03:38;23.52;;;14.10;;
56511;SDS011;42408;53.238;5.686;2022-12-20T16:06:03;20.20;;;14.40;;
56511;SDS011;42408;53.238;5.686;2022-12-20T16:08:29;22.47;;;15.50;;
56511;SDS011;42408;53.238;5.686;2022-12-20T16:10:55;18.93;;;14.33;;
56511;SDS011;42408;53.238;5.686;2022-12-20T16:13:22;20.17;;;14.93;;
56511;SDS011;42408;53.238;5.686;2022-12-20T16:15:49;20.60;;;14.27;;
56511;SDS011;42408;53.238;5.686;2022-12-20T16:18:16;26.75;;;15.95;;
56511;SDS011;42408;53.238;5.686;2022-12-20T16:20:42;23.23;;;15.00;;
56511;SDS011;42408;53.238;5.686;2022-12-20T16:23:16;20.15;;;14.82;;
56511;SDS011;42408;53.238;5.686;2022-12-20T16:25:42;22.77;;;16.08;;
56511;SDS011;42408;53.238;5.686;2022-12-20T16:28:08;20.93;;;15.47;;
56511;SDS011;42408;53.238;5.686;2022-12-20T16:30:34;23.15;;;17.23;;
56511;SDS011;42408;53.238;5.686;2022-12-20T16:33:00;23.80;;;16.27;;
56511;SDS011;42408;53.238;5.686;2022-12-20T16:35:30;22.85;;;16.55;;
56511;SDS011;42408;53.238;5.686;2022-12-20T16:37:58;25.50;;;16.45;;
56511;SDS011;42408;53.238;5.686;2022-12-20T16:42:51;20.98;;;16.40;;
56511;SDS011;42408;53.238;5.686;2022-12-20T16:45:18;25.90;;;17.20;;
56511;SDS011;42408;53.238;5.686;2022-12-20T16:47:46;25.30;;;17.13;;
56511;SDS011;42408;53.238;5.686;2022-12-20T16:50:13;27.58;;;18.35;;
56511;SDS011;42408;53.238;5.686;2022-12-20T16:52:39;30.73;;;18.38;;
56511;SDS011;42408;53.238;5.686;2022-12-20T16:55:06;25.70;;;17.70;;
56511;SDS011;42408;53.238;5.686;2022-12-20T16:57:37;27.65;;;19.42;;
56511;SDS011;42408;53.238;5.686;2022-12-20T17:00:03;28.63;;;19.53;;
56511;SDS011;42408;53.238;5.686;2022-12-20T17:02:31;32.17;;;19.48;;
56511;SDS011;42408;53.238;5.686;2022-12-20T17:04:58;27.17;;;18.33;;
56511;SDS011;42408;53.238;5.686;2022-12-20T17:07:24;31.95;;;19.88;;
56511;SDS011;42408;53.238;5.686;2022-12-20T17:09:51;29.48;;;17.90;;
56511;SDS011;42408;53.238;5.686;2022-12-20T17:12:18;25.70;;;18.77;;
56511;SDS011;42408;53.238;5.686;2022-12-20T17:14:45;28.63;;;17.52;;
56511;SDS011;42408;53.238;5.686;2022-12-20T17:17:11;26.65;;;17.48;;
56511;SDS011;42408;53.238;5.686;2022-12-20T17:19:37;23.87;;;17.03;;
56511;SDS011;42408;53.238;5.686;2022-12-20T17:22:04;30.90;;;17.80;;
56511;SDS011;42408;53.238;5.686;2022-12-20T17:24:30;30.08;;;18.75;;
56511;SDS011;42408;53.238;5.686;2022-12-20T17:26:56;32.83;;;19.67;;
56511;SDS011;42408;53.238;5.686;2022-12-20T17:29:22;31.87;;;18.57;;
56511;SDS011;42408;53.238;5.686;2022-12-20T17:31:47;29.60;;;20.27;;
56511;SDS011;42408;53.238;5.686;2022-12-20T17:34:17;32.97;;;19.10;;
56511;SDS011;42408;53.238;5.686;2022-12-20T17:36:44;24.25;;;18.17;;
56511;SDS011;42408;53.238;5.686;2022-12-20T17:39:11;32.70;;;21.05;;
56511;SDS011;42408;53.238;5.686;2022-12-20T17:41:36;37.10;;;21.97;;
56511;SDS011;42408;53.238;5.686;2022-12-20T17:44:03;40.83;;;21.93;;
56511;SDS011;42408;53.238;5.686;2022-12-20T17:46:30;30.52;;;20.48;;